createdAt,value
2023-03-08T00:03:58.378Z,18.33
2023-03-08T00:09:03.832Z,18.55
2023-03-08T00:14:08.123Z,19.45
2023-03-08T00:19:14.264Z,19.17
2023-03-08T00:24:20.144Z,17.40
2023-03-08T00:29:24.626Z,18.33
2023-03-08T00:34:30.366Z,17.38
2023-03-08T00:39:35.087Z,20.08
2023-03-08T00:44:41.450Z,14.75
2023-03-08T00:49:47.039Z,18.55
2023-03-08T00:54:51.792Z,17.38
2023-03-08T00:59:56.192Z,18.33
2023-03-08T01:05:03.226Z,17.38
2023-03-08T01:10:08.943Z,17.35
2023-03-08T01:15:14.991Z,16.13
2023-03-08T01:20:21.778Z,17.23
2023-03-08T01:25:26.037Z,14.15
2023-03-08T01:30:30.406Z,15.63
2023-03-08T01:35:36.106Z,16.88
2023-03-08T01:40:40.255Z,16.40
2023-03-08T01:46:05.598Z,15.88
2023-03-08T01:51:15.444Z,17.38
2023-03-08T01:56:21.067Z,16.48
2023-03-08T02:01:25.894Z,16.33
2023-03-08T02:06:35.122Z,15.82
2023-03-08T02:11:41.906Z,16.67
2023-03-08T02:16:46.580Z,15.00
2023-03-08T02:21:52.233Z,17.73
2023-03-08T02:27:03.603Z,16.35
2023-03-08T02:32:08.334Z,16.80
2023-03-08T02:37:16.162Z,13.23
2023-03-08T02:42:21.931Z,17.92
2023-03-08T02:47:26.144Z,16.15
2023-03-08T02:52:30.655Z,27.60
2023-03-08T02:57:36.419Z,20.15
2023-03-08T03:02:42.649Z,16.52
2023-03-08T03:07:47.292Z,16.63
2023-03-08T03:12:57.381Z,17.50
2023-03-08T03:18:11.024Z,22.05
2023-03-08T03:23:15.624Z,18.00
2023-03-08T03:28:30.453Z,17.67
2023-03-08T03:33:36.214Z,22.38
2023-03-08T03:38:42.511Z,16.38
2023-03-08T03:43:50.758Z,17.17
2023-03-08T03:55:44.122Z,14.75
2023-03-08T04:00:50.442Z,13.25
2023-03-08T04:06:09.569Z,12.57
2023-03-08T04:11:16.802Z,12.85
2023-03-08T04:16:24.213Z,13.77
2023-03-08T04:27:17.292Z,13.52
2023-03-08T04:32:23.132Z,11.43
2023-03-08T04:43:15.827Z,11.25
2023-03-08T04:48:22.214Z,10.38
2023-03-08T04:53:55.636Z,10.85
2023-03-08T05:05:17.135Z,9.15
2023-03-08T05:10:22.615Z,11.82
2023-03-08T05:16:01.529Z,12.43
2023-03-08T05:26:51.782Z,9.80
2023-03-08T05:31:59.067Z,12.60
2023-03-08T05:37:03.740Z,12.02
2023-03-08T05:42:13.429Z,12.70
2023-03-08T05:47:21.364Z,12.43
2023-03-08T05:52:25.616Z,11.57
2023-03-08T06:03:17.030Z,13.63
2023-03-08T06:08:22.931Z,14.82
2023-03-08T06:13:28.069Z,14.35
2023-03-08T06:18:34.917Z,15.48
2023-03-08T06:23:41.369Z,15.23
2023-03-08T06:34:34.132Z,12.27
2023-03-08T06:39:39.105Z,15.68
2023-03-08T06:44:50.617Z,11.18
2023-03-08T06:50:00.204Z,14.38
2023-03-08T06:55:05.297Z,13.98
2023-03-08T07:00:12.501Z,15.32
2023-03-08T07:05:22.177Z,13.30
2023-03-08T07:16:14.174Z,11.13
2023-03-08T07:21:20.273Z,12.38
2023-03-08T07:32:41.201Z,17.60
2023-03-08T07:37:49.552Z,14.05
2023-03-08T07:43:07.219Z,13.82
2023-03-08T07:48:36.672Z,15.47
2023-03-08T07:53:43.658Z,20.63
2023-03-08T07:58:48.071Z,15.73
2023-03-08T08:09:18.464Z,18.42
2023-03-08T08:19:59.978Z,17.15
2023-03-08T08:25:06.218Z,16.05
2023-03-08T08:35:57.877Z,13.45
2023-03-08T08:41:03.333Z,14.23
2023-03-08T08:46:40.202Z,16.73
2023-03-08T08:51:46.495Z,17.35
2023-03-08T08:56:51.147Z,16.67
2023-03-08T09:01:56.715Z,13.93
2023-03-08T09:07:03.091Z,13.95
2023-03-08T09:12:09.332Z,13.25
2023-03-08T09:17:13.797Z,13.25
2023-03-08T09:22:19.808Z,13.85
2023-03-08T09:27:23.981Z,12.10
2023-03-08T09:32:28.319Z,14.82
2023-03-08T09:37:34.342Z,12.27
2023-03-08T09:42:39.647Z,10.55
2023-03-08T09:47:50.178Z,11.32
2023-03-08T09:53:00.537Z,10.82
2023-03-08T09:58:15.124Z,11.50
2023-03-08T10:03:41.369Z,10.52
2023-03-08T10:08:54.572Z,13.57
2023-03-08T10:14:01.808Z,10.45
2023-03-08T10:19:15.018Z,12.73
2023-03-08T10:24:27.321Z,15.20
2023-03-08T10:29:31.600Z,20.95
2023-03-08T10:34:37.631Z,50.20
2023-03-08T10:39:53.530Z,14.95
2023-03-08T10:45:00.758Z,10.23
2023-03-08T10:50:08.203Z,12.93
2023-03-08T10:55:16.159Z,14.15
2023-03-08T11:00:32.386Z,14.25
2023-03-08T11:05:36.886Z,12.80
2023-03-08T11:10:42.986Z,15.40
2023-03-08T11:15:53.202Z,12.68
2023-03-08T11:21:03.454Z,17.75
2023-03-08T11:26:21.195Z,14.90
2023-03-08T11:31:34.586Z,11.77
2023-03-08T11:36:45.398Z,9.98
2023-03-08T11:41:58.925Z,18.75
2023-03-08T11:47:33.345Z,19.35
2023-03-08T11:52:51.947Z,13.10
2023-03-08T11:58:03.095Z,15.45
2023-03-08T12:03:14.944Z,12.82
2023-03-08T12:08:25.897Z,9.82
2023-03-08T12:13:35.572Z,13.15
2023-03-08T12:18:46.813Z,8.77
2023-03-08T12:24:02.172Z,13.85
2023-03-08T12:29:17.771Z,11.65
2023-03-08T12:34:29.435Z,9.25
2023-03-08T12:39:35.833Z,9.57
2023-03-08T12:44:41.640Z,11.75
2023-03-08T12:49:48.952Z,10.27
2023-03-08T12:54:59.428Z,8.77
2023-03-08T13:00:10.944Z,12.25
2023-03-08T13:05:21.931Z,8.07
2023-03-08T13:10:33.368Z,7.47
2023-03-08T13:15:40.263Z,9.23
2023-03-08T13:20:57.878Z,12.48
2023-03-08T13:26:16.080Z,15.07
2023-03-08T13:31:24.516Z,11.38
2023-03-08T13:36:30.285Z,8.98
2023-03-08T13:41:36.845Z,10.55
2023-03-08T13:46:43.315Z,9.30
2023-03-08T13:51:51.268Z,9.05
2023-03-08T13:56:57.037Z,18.98
2023-03-08T14:02:02.825Z,11.98
2023-03-08T14:07:22.603Z,7.47
2023-03-08T14:12:31.518Z,8.95
2023-03-08T14:17:37.899Z,9.13
2023-03-08T14:22:47.415Z,6.82
2023-03-08T14:33:02.065Z,9.38
2023-03-08T14:38:15.629Z,11.98
2023-03-08T14:43:23.257Z,12.93
2023-03-08T14:48:31.808Z,15.70
2023-03-08T14:53:38.938Z,13.03
2023-03-08T14:58:46.503Z,9.88
2023-03-08T15:03:52.603Z,6.90
2023-03-08T15:08:57.811Z,7.85
2023-03-08T15:14:02.978Z,8.32
2023-03-08T15:19:09.039Z,14.23
2023-03-08T15:24:17.704Z,9.98
2023-03-08T15:29:28.042Z,15.20
2023-03-08T15:34:34.066Z,8.95
2023-03-08T15:39:38.278Z,16.50
2023-03-08T15:44:42.648Z,11.80
2023-03-08T15:49:51.597Z,9.40
2023-03-08T15:54:57.476Z,11.75
2023-03-08T16:00:01.907Z,11.30
2023-03-08T16:05:19.827Z,13.45
2023-03-08T16:15:28.934Z,11.10
2023-03-08T16:20:34.951Z,12.30
2023-03-08T16:25:39.326Z,10.73
2023-03-08T16:30:43.429Z,14.45
2023-03-08T16:35:52.629Z,22.80
2023-03-08T16:41:11.525Z,17.17
2023-03-08T16:46:18.412Z,18.40
2023-03-08T16:51:25.819Z,12.30
2023-03-08T16:56:31.214Z,37.25
2023-03-08T17:01:35.589Z,27.05
2023-03-08T17:06:44.199Z,29.17
2023-03-08T17:11:48.650Z,18.73
2023-03-08T17:16:52.827Z,15.15
2023-03-08T17:21:58.498Z,14.85
2023-03-08T17:27:03.018Z,14.43
2023-03-08T17:32:08.470Z,16.30
2023-03-08T17:37:15.966Z,19.23
2023-03-08T17:42:20.235Z,19.60
2023-03-08T17:47:24.629Z,22.42
2023-03-08T17:52:30.240Z,23.83
2023-03-08T17:57:36.033Z,44.22
2023-03-08T18:02:40.481Z,46.90
2023-03-08T18:07:47.845Z,35.65
2023-03-08T18:12:52.315Z,46.55
2023-03-08T18:17:56.503Z,45.55
2023-03-08T18:23:04.195Z,30.13
2023-03-08T18:28:08.407Z,39.88
2023-03-08T18:33:13.418Z,35.60
2023-03-08T18:38:19.018Z,34.78
2023-03-08T18:43:23.218Z,26.63
2023-03-08T18:48:27.614Z,44.22
2023-03-08T18:53:33.505Z,24.77
2023-03-08T18:58:38.380Z,27.88
2023-03-08T19:03:44.030Z,32.92
2023-03-08T19:08:49.721Z,37.85
2023-03-08T19:13:54.151Z,54.20
2023-03-08T19:19:00.480Z,37.13
2023-03-08T19:24:07.312Z,50.03
2023-03-08T19:29:14.901Z,31.92
2023-03-08T19:34:20.875Z,40.15
2023-03-08T19:39:28.308Z,37.10
2023-03-08T19:44:33.832Z,26.73
2023-03-08T19:49:38.867Z,24.38
2023-03-08T19:54:45.666Z,24.80
2023-03-08T19:59:49.885Z,25.60
2023-03-08T20:04:54.251Z,35.15
2023-03-08T20:10:15.170Z,26.70
2023-03-08T20:15:20.152Z,25.48
2023-03-08T20:20:25.296Z,26.00
2023-03-08T20:25:30.971Z,24.02
2023-03-08T20:30:35.135Z,26.85
2023-03-08T20:35:40.056Z,26.70
2023-03-08T20:40:45.739Z,25.15
2023-03-08T20:45:49.948Z,29.58
2023-03-08T20:51:00.224Z,32.05
2023-03-08T20:56:08.730Z,29.55
2023-03-08T21:01:13.743Z,26.98
2023-03-08T21:06:20.499Z,27.85
2023-03-08T21:11:26.140Z,27.30
2023-03-08T21:16:31.096Z,28.85
2023-03-08T21:21:37.728Z,29.45
2023-03-08T21:26:43.580Z,30.23
2023-03-08T21:31:49.621Z,35.45
2023-03-08T21:36:54.373Z,31.60
2023-03-08T21:42:00.715Z,33.42
2023-03-08T21:47:05.123Z,31.27
2023-03-08T21:52:09.313Z,31.23
2023-03-08T21:57:15.184Z,34.17
2023-03-08T22:02:19.726Z,33.25
2023-03-08T22:07:24.053Z,28.38
2023-03-08T22:12:29.591Z,24.73
2023-03-08T22:17:34.056Z,27.48
2023-03-08T22:22:38.654Z,31.90
2023-03-08T22:27:45.512Z,25.70
2023-03-08T22:32:49.781Z,25.55
2023-03-08T22:37:54.430Z,26.38
2023-03-08T22:42:59.948Z,26.15
2023-03-08T22:48:04.792Z,26.17
2023-03-08T22:53:10.113Z,27.98
2023-03-08T22:58:16.012Z,32.97
2023-03-08T23:03:20.312Z,39.42
2023-03-08T23:08:24.591Z,41.08
2023-03-08T23:13:34.188Z,44.25
2023-03-08T23:18:39.034Z,35.85
2023-03-08T23:23:43.942Z,30.90
2023-03-08T23:28:49.562Z,30.85
2023-03-08T23:33:54.480Z,28.35
2023-03-08T23:39:01.952Z,26.65
2023-03-08T23:44:07.637Z,24.88
2023-03-08T23:49:12.044Z,25.70
2023-03-08T23:54:16.306Z,27.02
2023-03-08T23:59:24.147Z,22.35
